createdAt,value
2023-04-29T00:00:01.726Z,11.00
2023-04-29T00:00:11.128Z,11.00
2023-04-29T00:00:20.536Z,11.00
2023-04-29T00:00:39.323Z,11.00
2023-04-29T00:00:48.740Z,11.00
2023-04-29T00:00:58.142Z,11.00
2023-04-29T00:01:07.565Z,11.00
2023-04-29T00:01:16.993Z,11.00
2023-04-29T00:01:26.370Z,11.00
2023-04-29T00:01:45.185Z,11.00
2023-04-29T00:01:54.621Z,11.00
2023-04-29T00:02:03.982Z,11.00
2023-04-29T00:02:13.455Z,11.00
2023-04-29T00:02:23.020Z,11.00
2023-04-29T00:02:32.340Z,11.00
2023-04-29T00:02:51.086Z,11.00
2023-04-29T00:03:00.599Z,11.00
2023-04-29T00:03:09.981Z,11.00
2023-04-29T00:03:19.430Z,11.00
2023-04-29T00:03:28.778Z,11.00
2023-04-29T00:03:38.235Z,11.00
2023-04-29T00:03:57.098Z,11.00
2023-04-29T00:04:06.387Z,11.00
2023-04-29T00:04:15.878Z,11.00
2023-04-29T00:04:25.270Z,11.00
2023-04-29T00:04:34.553Z,11.00
2023-04-29T00:04:44.239Z,11.00
2023-04-29T00:05:02.970Z,11.00
2023-04-29T00:05:12.336Z,11.00
2023-04-29T00:05:21.568Z,11.00
2023-04-29T00:05:30.926Z,11.00
2023-04-29T00:05:40.458Z,11.00
2023-04-29T00:05:49.898Z,11.00
2023-04-29T00:06:08.534Z,11.00
2023-04-29T00:06:18.154Z,10.90
2023-04-29T00:06:27.377Z,10.90
2023-04-29T00:06:36.671Z,10.90
2023-04-29T00:06:46.055Z,10.90
2023-04-29T00:06:55.440Z,10.90
2023-04-29T00:07:14.226Z,10.90
2023-04-29T00:07:23.655Z,10.90
2023-04-29T00:07:33.057Z,10.90
2023-04-29T00:07:42.452Z,10.90
2023-04-29T00:07:51.852Z,10.90
2023-04-29T00:08:01.272Z,10.90
2023-04-29T00:08:20.103Z,10.90
2023-04-29T00:08:29.504Z,10.90
2023-04-29T00:08:38.910Z,10.90
2023-04-29T00:08:48.316Z,10.90
2023-04-29T00:08:57.744Z,10.90
2023-04-29T00:09:07.160Z,10.90
2023-04-29T00:09:26.076Z,10.90
2023-04-29T00:09:35.526Z,10.90
2023-04-29T00:09:44.908Z,10.90
2023-04-29T00:09:54.519Z,10.90
2023-04-29T00:10:03.793Z,10.90
2023-04-29T00:10:13.248Z,10.90
2023-04-29T00:10:32.058Z,10.90
2023-04-29T00:10:41.482Z,10.90
2023-04-29T00:10:50.890Z,10.90
2023-04-29T00:11:00.312Z,10.90
2023-04-29T00:11:09.823Z,10.90
2023-04-29T00:11:19.130Z,10.90
2023-04-29T00:11:37.956Z,10.90
2023-04-29T00:11:47.352Z,10.90
2023-04-29T00:11:56.758Z,10.90
2023-04-29T00:12:06.151Z,10.80
2023-04-29T00:12:15.580Z,10.90
2023-04-29T00:12:25.007Z,10.80
2023-04-29T00:12:43.774Z,10.80
2023-04-29T00:12:53.186Z,10.80
2023-04-29T00:13:02.557Z,10.80
2023-04-29T00:13:11.943Z,10.80
2023-04-29T00:13:21.355Z,10.80
2023-04-29T00:13:30.787Z,10.80
2023-04-29T00:13:49.523Z,10.80
2023-04-29T00:13:58.921Z,10.80
2023-04-29T00:14:08.308Z,10.80
2023-04-29T00:14:17.748Z,10.80
2023-04-29T00:14:27.109Z,10.80
2023-04-29T00:14:36.535Z,10.80
2023-04-29T00:25:15.684Z,10.20
2023-04-29T00:25:25.084Z,10.10
2023-04-29T00:25:34.500Z,10.10
2023-04-29T00:25:43.897Z,10.10
2023-04-29T00:25:53.323Z,10.10
2023-04-29T00:26:02.729Z,10.10
2023-04-29T00:26:21.510Z,10.00
2023-04-29T00:26:30.953Z,10.10
2023-04-29T00:26:40.381Z,10.00
2023-04-29T00:26:49.807Z,10.00
2023-04-29T00:26:59.180Z,10.00
2023-04-29T00:27:08.614Z,10.00
2023-04-29T00:27:27.452Z,9.90
2023-04-29T00:27:36.871Z,9.90
2023-04-29T00:27:46.289Z,9.90
2023-04-29T00:27:55.671Z,9.90
2023-04-29T00:28:05.066Z,9.90
2023-04-29T00:28:14.522Z,9.90
2023-04-29T00:28:33.384Z,9.90
2023-04-29T00:28:42.734Z,9.80
2023-04-29T00:28:52.156Z,9.90
2023-04-29T00:29:01.689Z,9.70
2023-04-29T00:29:11.132Z,9.80
2023-04-29T00:29:20.526Z,9.80
2023-04-29T00:29:39.333Z,9.80
2023-04-29T00:29:48.743Z,9.80
2023-04-29T00:29:58.151Z,9.80
2023-04-29T00:30:07.581Z,9.80
2023-04-29T00:30:16.997Z,9.80
2023-04-29T00:30:26.405Z,9.80
2023-04-29T00:30:45.253Z,9.80
2023-04-29T00:30:54.668Z,9.80
2023-04-29T00:31:04.097Z,9.70
2023-04-29T00:31:13.512Z,9.80
2023-04-29T00:31:22.874Z,9.80
2023-04-29T00:31:32.288Z,9.80
2023-04-29T00:31:51.081Z,9.70
2023-04-29T00:32:00.479Z,9.70
2023-04-29T00:32:09.903Z,9.70
2023-04-29T00:32:19.333Z,9.70
2023-04-29T00:32:28.786Z,9.70
2023-04-29T00:32:38.220Z,9.70
2023-04-29T00:32:57.032Z,9.70
2023-04-29T00:33:06.426Z,9.80
2023-04-29T00:33:15.822Z,9.60
2023-04-29T00:33:25.253Z,9.70
2023-04-29T00:33:34.648Z,9.70
2023-04-29T00:33:44.093Z,9.70
2023-04-29T00:34:02.906Z,9.60
2023-04-29T00:34:12.310Z,9.60
2023-04-29T00:34:21.715Z,9.60
2023-04-29T00:34:31.128Z,9.60
2023-04-29T00:34:40.569Z,9.60
2023-04-29T00:34:50.044Z,9.60
2023-04-29T00:35:08.843Z,9.60
2023-04-29T00:35:18.272Z,9.60
2023-04-29T00:35:27.721Z,9.60
2023-04-29T00:35:37.126Z,9.60
2023-04-29T00:35:46.580Z,9.60
2023-04-29T00:35:55.970Z,9.60
2023-04-29T00:36:14.774Z,9.60
2023-04-29T00:36:24.166Z,9.50
2023-04-29T00:36:33.573Z,9.50
2023-04-29T00:36:43.005Z,9.50
2023-04-29T00:36:52.447Z,9.50
2023-04-29T00:37:01.846Z,9.50
2023-04-29T00:37:20.638Z,9.50
2023-04-29T00:37:30.037Z,9.50
2023-04-29T00:37:39.448Z,9.50
2023-04-29T00:37:48.791Z,9.50
2023-04-29T00:37:58.177Z,9.60
2023-04-29T00:38:07.582Z,9.60
2023-04-29T00:38:26.401Z,9.60
2023-04-29T00:38:35.824Z,9.60
2023-04-29T00:38:45.229Z,9.60
2023-04-29T00:38:54.627Z,9.60
2023-04-29T00:39:04.031Z,9.60
2023-04-29T00:39:15.252Z,9.60
2023-04-29T00:39:32.182Z,9.70
2023-04-29T00:39:41.572Z,9.60
2023-04-29T00:39:51.266Z,9.70
2023-04-29T00:40:00.361Z,9.70
2023-04-29T00:40:09.845Z,9.70
2023-04-29T00:40:19.215Z,9.70
2023-04-29T00:40:37.981Z,9.80
2023-04-29T00:40:47.400Z,9.80
2023-04-29T00:40:56.798Z,9.80
2023-04-29T00:41:06.199Z,9.80
2023-04-29T00:41:15.587Z,9.90
2023-04-29T00:41:24.981Z,9.90
2023-04-29T00:41:43.795Z,9.90
2023-04-29T00:41:53.177Z,10.00
2023-04-29T00:42:02.596Z,10.00
2023-04-29T00:42:11.991Z,10.00
2023-04-29T00:42:21.417Z,10.00
2023-04-29T00:42:30.809Z,10.10
2023-04-29T00:42:49.647Z,10.10
2023-04-29T00:42:59.069Z,10.10
2023-04-29T00:43:08.451Z,10.20
2023-04-29T00:43:17.870Z,10.20
2023-04-29T00:43:27.251Z,10.20
2023-04-29T00:43:36.664Z,10.20
2023-04-29T00:43:55.433Z,10.30
2023-04-29T00:44:04.831Z,10.30
2023-04-29T00:44:14.227Z,10.30
2023-04-29T00:44:23.617Z,10.30
2023-04-29T00:44:33.017Z,10.40
2023-04-29T00:44:42.585Z,10.40
2023-04-29T00:45:01.390Z,10.40
2023-04-29T00:45:10.896Z,10.40
2023-04-29T00:45:20.301Z,10.50
2023-04-29T00:45:29.694Z,10.50
2023-04-29T00:45:39.070Z,10.50
2023-04-29T00:45:48.523Z,10.50
2023-04-29T00:46:07.275Z,10.60
2023-04-29T00:46:16.678Z,10.60
2023-04-29T00:46:26.114Z,10.60
2023-04-29T00:46:35.527Z,10.60
2023-04-29T00:46:44.894Z,10.60
2023-04-29T00:46:54.255Z,10.60
2023-04-29T00:47:13.050Z,10.70
2023-04-29T00:47:22.512Z,10.70
2023-04-29T00:47:31.904Z,10.70
2023-04-29T00:47:41.335Z,10.70
2023-04-29T00:47:50.821Z,10.70
2023-04-29T00:48:00.200Z,10.70
2023-04-29T00:48:18.930Z,10.80
2023-04-29T00:48:28.333Z,10.80
2023-04-29T00:48:37.764Z,10.80
2023-04-29T00:48:47.169Z,10.80
2023-04-29T00:48:56.569Z,10.80
2023-04-29T00:49:05.961Z,10.80
2023-04-29T00:49:24.770Z,10.80
2023-04-29T00:49:34.147Z,10.90
2023-04-29T00:49:43.540Z,10.90
2023-04-29T00:49:53.202Z,10.90
2023-04-29T00:50:02.335Z,10.90
2023-04-29T00:50:11.739Z,10.90
2023-04-29T00:50:30.554Z,10.90
2023-04-29T00:50:39.957Z,10.90
2023-04-29T00:50:49.368Z,10.90
2023-04-29T00:50:58.750Z,10.90
2023-04-29T00:51:08.156Z,10.90
2023-04-29T00:51:17.539Z,11.00
2023-04-29T00:51:36.328Z,11.00
2023-04-29T00:51:45.729Z,11.00
2023-04-29T00:51:55.159Z,11.00
2023-04-29T00:52:04.576Z,11.00
2023-04-29T00:52:13.977Z,11.00
2023-04-29T00:52:23.346Z,11.00
2023-04-29T00:52:42.213Z,11.00
2023-04-29T00:52:51.612Z,11.10
2023-04-29T00:53:01.005Z,11.10
2023-04-29T00:53:10.437Z,11.10
2023-04-29T00:53:19.849Z,11.00
2023-04-29T00:53:29.258Z,11.10
2023-04-29T00:53:49.632Z,11.10
2023-04-29T00:53:57.442Z,11.10
2023-04-29T00:54:06.816Z,11.10
2023-04-29T00:54:16.206Z,11.10
2023-04-29T00:54:25.588Z,11.10
2023-04-29T00:54:35.017Z,11.10
2023-04-29T00:54:53.798Z,11.10
2023-04-29T00:55:03.213Z,11.10
2023-04-29T00:55:12.593Z,11.10
2023-04-29T00:55:22.015Z,11.20
2023-04-29T00:55:31.456Z,11.20
2023-04-29T00:55:40.851Z,11.20
2023-04-29T00:55:59.654Z,11.20
2023-04-29T00:56:09.043Z,11.20
2023-04-29T00:56:18.411Z,11.20
2023-04-29T00:56:27.810Z,11.20
2023-04-29T00:56:37.196Z,11.20
2023-04-29T00:56:46.588Z,11.20
2023-04-29T00:57:05.393Z,11.20
2023-04-29T00:57:14.802Z,11.20
2023-04-29T00:57:24.171Z,11.20
2023-04-29T00:57:33.561Z,11.20
2023-04-29T00:57:42.947Z,11.20
2023-04-29T00:57:52.358Z,11.20
2023-04-29T00:58:11.090Z,11.10
2023-04-29T00:58:20.511Z,11.10
2023-04-29T00:58:29.914Z,11.10
2023-04-29T00:58:39.357Z,11.10
2023-04-29T00:58:48.715Z,11.10
2023-04-29T00:58:58.113Z,11.10
2023-04-29T00:59:16.920Z,11.10
2023-04-29T00:59:26.294Z,11.10
2023-04-29T00:59:35.672Z,11.10
2023-04-29T00:59:45.078Z,11.10
2023-04-29T00:59:54.644Z,11.10
2023-04-29T01:00:03.890Z,11.10
2023-04-29T01:00:22.653Z,11.10
2023-04-29T01:00:32.057Z,11.10
2023-04-29T01:00:41.496Z,11.10
2023-04-29T01:00:50.872Z,11.10
2023-04-29T01:01:00.260Z,11.10
2023-04-29T01:01:09.691Z,11.10
2023-04-29T01:01:28.493Z,11.10
2023-04-29T01:01:37.861Z,11.10
2023-04-29T01:01:47.475Z,11.10
2023-04-29T01:01:56.904Z,11.10
2023-04-29T01:02:06.250Z,11.10
2023-04-29T01:02:15.644Z,11.10
2023-04-29T01:02:34.520Z,11.10
2023-04-29T01:02:43.947Z,11.10
2023-04-29T01:02:53.322Z,11.10
2023-04-29T01:03:02.770Z,11.10
2023-04-29T01:03:12.168Z,11.10
2023-04-29T01:03:21.521Z,11.10
2023-04-29T01:03:40.485Z,11.10
2023-04-29T01:03:49.723Z,11.20
2023-04-29T01:03:59.262Z,11.20
2023-04-29T01:04:08.660Z,11.20
2023-04-29T01:04:17.978Z,11.20
2023-04-29T01:04:27.245Z,11.10
2023-04-29T01:04:46.058Z,11.20
2023-04-29T01:04:55.443Z,11.20
2023-04-29T01:05:04.806Z,11.20
2023-04-29T01:05:14.215Z,11.20
2023-04-29T01:05:23.615Z,11.20
2023-04-29T01:05:33.005Z,11.20
2023-04-29T01:05:51.808Z,11.20
2023-04-29T01:06:01.198Z,11.20
2023-04-29T01:06:10.587Z,11.20
2023-04-29T01:06:19.966Z,11.20
2023-04-29T01:06:29.348Z,11.20
2023-04-29T01:06:38.746Z,11.20
2023-04-29T01:06:57.549Z,11.20
2023-04-29T01:07:06.930Z,11.20
2023-04-29T01:07:16.333Z,11.20
2023-04-29T01:07:25.736Z,11.20
2023-04-29T01:07:35.155Z,11.20
2023-04-29T01:07:44.555Z,11.20
2023-04-29T01:08:03.373Z,11.20
2023-04-29T01:08:12.745Z,11.20
2023-04-29T01:08:22.140Z,11.20
2023-04-29T01:08:31.627Z,11.20
2023-04-29T01:08:41.012Z,11.20
2023-04-29T01:08:50.408Z,11.20
2023-04-29T01:09:09.186Z,11.20
2023-04-29T01:09:18.571Z,11.20
2023-04-29T01:09:27.960Z,11.20
2023-04-29T01:09:37.362Z,11.20
2023-04-29T01:09:46.776Z,11.20
2023-04-29T01:09:56.173Z,11.20
2023-04-29T01:10:14.966Z,11.20
2023-04-29T01:10:24.373Z,11.20
2023-04-29T01:10:33.747Z,11.20
2023-04-29T01:10:43.143Z,11.20
2023-04-29T01:10:52.537Z,11.20
2023-04-29T01:11:01.952Z,11.20
2023-04-29T01:11:20.778Z,11.20
2023-04-29T01:11:30.190Z,11.20
2023-04-29T01:11:39.577Z,11.20
2023-04-29T01:11:48.989Z,11.30
2023-04-29T01:11:58.370Z,11.30
2023-04-29T01:12:07.765Z,11.30
2023-04-29T01:12:26.544Z,11.30
2023-04-29T01:12:35.928Z,11.30
2023-04-29T01:12:45.313Z,11.30
2023-04-29T01:12:54.724Z,11.30
2023-04-29T01:13:04.124Z,11.30
2023-04-29T01:13:13.534Z,11.30
2023-04-29T01:13:32.350Z,11.30
2023-04-29T01:13:41.745Z,11.30
2023-04-29T01:13:51.151Z,11.30
2023-04-29T01:14:00.558Z,11.30
2023-04-29T01:14:09.957Z,11.30
2023-04-29T01:14:19.338Z,11.30
2023-04-29T01:14:38.152Z,11.30
2023-04-29T01:14:47.539Z,11.40
2023-04-29T01:14:56.938Z,11.30
2023-04-29T01:15:06.336Z,11.30
2023-04-29T01:15:15.714Z,11.30
2023-04-29T01:15:25.108Z,11.30
2023-04-29T01:15:43.907Z,11.30
2023-04-29T01:15:53.293Z,11.20
2023-04-29T01:16:02.715Z,11.30
2023-04-29T01:16:12.171Z,11.30
2023-04-29T01:16:21.609Z,11.30
2023-04-29T01:16:30.984Z,11.20
2023-04-29T01:16:49.755Z,11.30
2023-04-29T01:16:59.152Z,11.20
2023-04-29T01:17:08.541Z,11.30
2023-04-29T01:17:17.926Z,11.30
2023-04-29T01:17:27.342Z,11.30
2023-04-29T01:17:36.720Z,11.30
2023-04-29T01:17:55.546Z,11.30
2023-04-29T01:18:04.939Z,11.30
2023-04-29T01:18:14.295Z,11.30
2023-04-29T01:18:23.754Z,11.30
2023-04-29T01:18:33.173Z,11.30
2023-04-29T01:18:42.570Z,11.30
2023-04-29T01:19:01.352Z,11.40
2023-04-29T01:19:10.750Z,11.30
2023-04-29T01:19:20.143Z,11.30
2023-04-29T01:19:29.530Z,11.40
2023-04-29T01:19:38.934Z,11.40
2023-04-29T01:19:48.326Z,11.40
2023-04-29T01:20:07.164Z,11.40
2023-04-29T01:20:16.558Z,11.40
2023-04-29T01:20:25.983Z,11.40
2023-04-29T01:20:35.362Z,11.30
2023-04-29T01:20:44.784Z,11.40
2023-04-29T01:20:57.132Z,11.30
2023-04-29T01:21:13.468Z,11.30
2023-04-29T01:21:22.875Z,11.30
2023-04-29T01:21:32.293Z,11.30
2023-04-29T01:21:41.657Z,11.30
2023-04-29T01:21:51.069Z,11.30
2023-04-29T01:22:00.458Z,11.30
2023-04-29T01:22:19.299Z,11.30
2023-04-29T01:22:28.711Z,11.30
2023-04-29T01:22:38.109Z,11.30
2023-04-29T01:22:47.496Z,11.30
2023-04-29T01:22:56.915Z,11.30
2023-04-29T01:23:06.311Z,11.30
2023-04-29T01:23:25.156Z,11.30
2023-04-29T01:23:34.554Z,11.30
2023-04-29T01:23:43.970Z,11.30
2023-04-29T01:23:53.367Z,11.30
2023-04-29T01:24:02.765Z,11.30
2023-04-29T01:24:12.149Z,11.20
2023-04-29T01:24:30.948Z,11.30
2023-04-29T01:24:40.341Z,11.30
2023-04-29T01:24:49.761Z,11.30
2023-04-29T01:24:59.147Z,11.30
2023-04-29T01:25:08.529Z,11.30
2023-04-29T01:25:17.919Z,11.30
2023-04-29T01:25:36.760Z,11.30
2023-04-29T01:25:46.172Z,11.30
2023-04-29T01:25:55.554Z,11.30
2023-04-29T01:26:04.944Z,11.30
2023-04-29T01:26:14.331Z,11.30
2023-04-29T01:26:23.730Z,11.30
2023-04-29T01:26:42.536Z,11.30
2023-04-29T01:26:51.934Z,11.20
2023-04-29T01:27:01.346Z,11.30
2023-04-29T01:27:10.727Z,11.30
2023-04-29T01:27:20.130Z,11.30
2023-04-29T01:27:29.527Z,11.30
2023-04-29T01:27:48.344Z,11.30
2023-04-29T01:27:57.741Z,11.30
2023-04-29T01:28:07.128Z,11.30
2023-04-29T01:28:16.543Z,11.20
2023-04-29T01:28:25.953Z,11.20
2023-04-29T01:28:35.350Z,11.20
2023-04-29T01:28:54.147Z,11.20
2023-04-29T01:29:03.559Z,11.20
2023-04-29T01:29:12.973Z,11.20
2023-04-29T01:29:22.384Z,11.20
2023-04-29T01:29:31.817Z,11.20
2023-04-29T01:29:41.196Z,11.20
2023-04-29T01:29:59.997Z,11.20
2023-04-29T01:30:09.392Z,11.20
2023-04-29T01:30:18.805Z,11.20
2023-04-29T01:30:28.200Z,11.20
2023-04-29T01:30:37.604Z,11.20
2023-04-29T01:30:46.975Z,11.20
2023-04-29T01:31:05.836Z,11.20
2023-04-29T01:31:15.231Z,11.20
2023-04-29T01:31:24.623Z,11.20
2023-04-29T01:31:33.991Z,11.20
2023-04-29T01:31:43.387Z,11.20
2023-04-29T01:31:52.898Z,11.20
2023-04-29T01:32:11.545Z,11.20
2023-04-29T01:32:20.934Z,11.20
2023-04-29T01:32:30.879Z,11.20
2023-04-29T01:32:39.802Z,11.20
2023-04-29T01:32:49.109Z,11.20
2023-04-29T01:32:58.637Z,11.20
2023-04-29T01:33:17.254Z,11.20
2023-04-29T01:33:26.680Z,11.20
2023-04-29T01:33:36.075Z,11.20
2023-04-29T01:33:45.483Z,11.20
2023-04-29T01:33:54.870Z,11.20
2023-04-29T01:34:04.237Z,11.20
2023-04-29T01:34:23.069Z,11.20
2023-04-29T01:34:32.448Z,11.20
2023-04-29T01:34:41.858Z,11.20
2023-04-29T01:34:51.236Z,11.20
2023-04-29T01:35:00.613Z,11.20
2023-04-29T01:35:09.999Z,11.20
2023-04-29T01:35:28.796Z,11.20
2023-04-29T01:35:38.188Z,11.20
2023-04-29T01:35:47.627Z,11.20
2023-04-29T01:35:57.021Z,11.20
2023-04-29T01:36:06.443Z,11.20
2023-04-29T01:36:15.835Z,11.20
2023-04-29T01:36:34.607Z,11.20
2023-04-29T01:36:44.004Z,11.20
2023-04-29T01:36:53.408Z,11.20
2023-04-29T01:37:02.763Z,11.20
2023-04-29T01:37:12.141Z,11.20
2023-04-29T01:37:21.541Z,11.20
2023-04-29T01:37:40.315Z,11.20
2023-04-29T01:37:49.683Z,11.20
2023-04-29T01:37:59.075Z,11.20
2023-04-29T01:38:08.479Z,11.20
2023-04-29T01:38:17.864Z,11.20
2023-04-29T01:38:27.285Z,11.20
2023-04-29T01:38:46.068Z,11.20
2023-04-29T01:38:55.488Z,11.20
2023-04-29T01:39:04.881Z,11.20
2023-04-29T01:39:14.280Z,11.20
2023-04-29T01:39:23.663Z,11.20
2023-04-29T01:39:33.028Z,11.20
2023-04-29T01:39:51.984Z,11.20
2023-04-29T01:40:01.165Z,11.20
2023-04-29T01:40:10.589Z,11.20
2023-04-29T01:40:20.001Z,11.20
2023-04-29T01:40:29.390Z,11.20
2023-04-29T01:40:38.800Z,11.20
2023-04-29T01:40:57.546Z,11.20
2023-04-29T01:41:06.934Z,11.20
2023-04-29T01:41:16.334Z,11.20
2023-04-29T01:41:25.724Z,11.20
2023-04-29T01:41:35.132Z,11.20
2023-04-29T01:41:44.516Z,11.20
2023-04-29T01:42:03.321Z,11.20
2023-04-29T01:42:12.692Z,11.20
2023-04-29T01:42:22.082Z,11.20
2023-04-29T01:42:31.525Z,11.20
2023-04-29T01:42:40.915Z,11.20
2023-04-29T01:42:50.304Z,11.20
2023-04-29T01:43:09.083Z,11.20
2023-04-29T01:43:18.493Z,11.20
2023-04-29T01:43:28.116Z,11.20
2023-04-29T01:43:37.531Z,11.20
2023-04-29T01:43:46.928Z,11.20
2023-04-29T01:43:56.326Z,11.20
2023-04-29T01:44:15.148Z,11.20
2023-04-29T01:44:24.555Z,11.20
2023-04-29T01:44:33.964Z,11.20
2023-04-29T01:44:43.362Z,11.20
2023-04-29T01:44:52.803Z,11.00
2023-04-29T01:45:02.216Z,11.20
2023-04-29T01:45:21.003Z,11.20
2023-04-29T01:45:30.391Z,11.20
2023-04-29T01:45:39.783Z,11.20
2023-04-29T01:45:49.168Z,11.10
2023-04-29T01:45:58.568Z,11.10
2023-04-29T01:46:08.077Z,11.10
2023-04-29T01:46:26.856Z,11.10
2023-04-29T01:46:36.274Z,11.10
2023-04-29T01:46:45.697Z,11.00
2023-04-29T01:46:55.116Z,11.00
2023-04-29T01:47:04.536Z,11.00
2023-04-29T01:47:13.888Z,11.00
2023-04-29T01:47:32.774Z,10.90
2023-04-29T01:47:42.161Z,10.90
2023-04-29T01:47:51.562Z,10.90
2023-04-29T01:48:01.057Z,10.90
2023-04-29T01:48:10.347Z,10.80
2023-04-29T01:48:19.747Z,10.80
2023-04-29T01:48:38.606Z,10.80
2023-04-29T01:48:48.072Z,10.70
2023-04-29T01:48:57.522Z,10.70
2023-04-29T01:49:06.914Z,10.70
2023-04-29T01:49:16.323Z,10.70
2023-04-29T01:49:25.704Z,10.60
2023-04-29T01:49:44.479Z,10.60
2023-04-29T01:49:54.160Z,10.60
2023-04-29T01:50:03.305Z,10.50
2023-04-29T01:50:12.691Z,10.50
2023-04-29T01:50:22.090Z,10.50
2023-04-29T01:50:31.527Z,10.40
2023-04-29T01:50:50.359Z,10.40
2023-04-29T01:50:59.758Z,10.40
2023-04-29T01:51:09.165Z,10.40
2023-04-29T01:51:18.575Z,10.40
2023-04-29T01:51:27.971Z,10.30
2023-04-29T01:51:37.389Z,10.30
2023-04-29T01:51:56.186Z,10.20
2023-04-29T01:52:05.569Z,10.20
2023-04-29T01:52:14.976Z,10.20
2023-04-29T01:52:24.409Z,10.20
2023-04-29T01:52:33.814Z,10.20
2023-04-29T01:52:43.204Z,10.20
2023-04-29T01:53:01.996Z,10.10
2023-04-29T01:53:11.441Z,10.10
2023-04-29T01:53:20.833Z,10.10
2023-04-29T01:53:30.255Z,10.10
2023-04-29T01:53:39.660Z,10.10
2023-04-29T01:53:49.045Z,10.10
2023-04-29T01:54:07.834Z,10.10
2023-04-29T01:54:17.255Z,10.00
2023-04-29T01:54:26.682Z,10.00
2023-04-29T01:54:36.077Z,10.00
2023-04-29T01:54:45.486Z,10.00
2023-04-29T01:54:54.877Z,10.00
2023-04-29T01:55:13.654Z,10.00
2023-04-29T01:55:23.043Z,10.00
2023-04-29T01:55:32.458Z,10.00
2023-04-29T01:55:41.842Z,10.00
2023-04-29T01:55:51.290Z,10.00
2023-04-29T01:56:00.679Z,10.00
2023-04-29T01:56:19.458Z,10.00
2023-04-29T01:56:28.853Z,10.00
2023-04-29T01:56:38.238Z,10.00
2023-04-29T01:56:47.612Z,10.00
2023-04-29T01:56:57.000Z,10.00
2023-04-29T01:57:06.392Z,10.10
2023-04-29T01:57:25.143Z,10.10
2023-04-29T01:57:34.521Z,10.10
2023-04-29T01:57:43.903Z,10.10
2023-04-29T01:57:53.274Z,10.10
2023-04-29T01:58:02.667Z,10.20
2023-04-29T01:58:12.067Z,10.20
2023-04-29T01:58:30.847Z,10.20
2023-04-29T01:58:40.251Z,10.20
2023-04-29T01:58:49.690Z,10.30
2023-04-29T01:58:59.077Z,10.30
2023-04-29T01:59:08.467Z,10.30
2023-04-29T01:59:17.893Z,10.30
2023-04-29T01:59:36.684Z,10.40
2023-04-29T01:59:46.159Z,10.40
2023-04-29T01:59:55.583Z,10.40
2023-04-29T02:00:05.002Z,10.40
2023-04-29T02:00:14.398Z,10.40
2023-04-29T02:00:23.810Z,10.40
2023-04-29T02:00:42.631Z,10.50
2023-04-29T02:00:52.021Z,10.50
2023-04-29T02:01:01.509Z,10.50
2023-04-29T02:01:10.867Z,10.50
2023-04-29T02:01:20.277Z,10.50
2023-04-29T02:01:29.644Z,10.60
2023-04-29T02:01:48.409Z,10.60
2023-04-29T02:01:57.799Z,10.60
2023-04-29T02:02:07.180Z,10.60
2023-04-29T02:02:16.560Z,10.60
2023-04-29T02:02:26.022Z,10.70
2023-04-29T02:02:35.483Z,10.60
2023-04-29T02:02:54.182Z,10.70
2023-04-29T02:03:03.584Z,10.70
2023-04-29T02:03:13.005Z,10.70
2023-04-29T02:03:22.416Z,10.70
2023-04-29T02:03:32.061Z,10.70
2023-04-29T02:03:41.441Z,10.70
2023-04-29T02:04:00.025Z,10.70
2023-04-29T02:04:09.347Z,10.70
2023-04-29T02:04:18.767Z,10.80
2023-04-29T02:04:28.207Z,10.80
2023-04-29T02:04:37.565Z,10.80
2023-04-29T02:04:46.956Z,10.80
2023-04-29T02:05:05.703Z,10.80
2023-04-29T02:05:15.072Z,10.80
2023-04-29T02:05:24.457Z,10.80
2023-04-29T02:05:33.903Z,10.80
2023-04-29T02:05:43.271Z,10.80
2023-04-29T02:05:52.690Z,10.80
2023-04-29T02:06:11.479Z,10.90
2023-04-29T02:06:20.860Z,10.90
2023-04-29T02:06:30.260Z,10.90
2023-04-29T02:06:39.657Z,10.90
2023-04-29T02:06:49.066Z,10.90
2023-04-29T02:06:58.451Z,10.90
2023-04-29T02:07:17.260Z,10.90
2023-04-29T02:07:26.658Z,10.90
2023-04-29T02:07:36.063Z,10.90
2023-04-29T02:07:45.471Z,10.90
2023-04-29T02:07:54.853Z,10.90
2023-04-29T02:08:04.256Z,10.90
2023-04-29T02:08:23.025Z,10.90
2023-04-29T02:08:32.453Z,10.90
2023-04-29T02:08:41.834Z,10.90
2023-04-29T02:08:51.225Z,10.90
2023-04-29T02:09:00.630Z,11.00
2023-04-29T02:09:10.034Z,11.00
2023-04-29T02:09:28.814Z,11.00
2023-04-29T02:09:38.227Z,11.00
2023-04-29T02:09:47.623Z,11.00
2023-04-29T02:09:57.014Z,11.00
2023-04-29T02:10:06.399Z,11.00
2023-04-29T02:10:15.796Z,11.00
2023-04-29T02:10:34.598Z,11.00
2023-04-29T02:10:43.993Z,11.00
2023-04-29T02:10:53.359Z,11.00
2023-04-29T02:11:02.775Z,11.00
2023-04-29T02:11:12.130Z,11.00
2023-04-29T02:11:21.549Z,11.10
2023-04-29T02:11:40.307Z,11.00
2023-04-29T02:11:49.693Z,11.10
2023-04-29T02:11:59.084Z,11.10
2023-04-29T02:12:08.479Z,11.00
2023-04-29T02:12:17.876Z,11.10
2023-04-29T02:12:27.288Z,11.10
2023-04-29T02:12:46.079Z,11.10
2023-04-29T02:12:55.467Z,11.10
2023-04-29T02:13:04.860Z,11.10
2023-04-29T02:13:14.261Z,11.10
2023-04-29T02:13:23.662Z,11.10
2023-04-29T02:13:33.079Z,11.10
2023-04-29T02:13:51.875Z,11.10
2023-04-29T02:14:01.266Z,11.10
2023-04-29T02:14:10.665Z,11.10
2023-04-29T02:14:20.077Z,11.10
2023-04-29T02:14:29.469Z,11.10
2023-04-29T02:14:38.885Z,11.10
2023-04-29T02:14:57.791Z,11.10
2023-04-29T02:15:07.082Z,11.10
2023-04-29T02:15:16.491Z,11.10
2023-04-29T02:15:25.845Z,11.10
2023-04-29T02:15:35.232Z,11.10
2023-04-29T02:15:44.636Z,11.10
2023-04-29T02:16:03.427Z,11.10
2023-04-29T02:16:12.832Z,11.10
2023-04-29T02:16:22.194Z,11.10
2023-04-29T02:16:31.621Z,11.10
2023-04-29T02:16:40.981Z,11.10
2023-04-29T02:16:50.493Z,11.10
2023-04-29T02:17:09.137Z,11.10
2023-04-29T02:17:18.531Z,11.10
2023-04-29T02:17:27.948Z,11.10
2023-04-29T02:17:37.362Z,11.10
2023-04-29T02:17:46.767Z,11.10
2023-04-29T02:17:56.272Z,11.10
2023-04-29T02:18:14.907Z,11.10
2023-04-29T02:18:24.317Z,11.10
2023-04-29T02:18:33.717Z,11.10
2023-04-29T02:18:43.110Z,11.10
2023-04-29T02:18:52.499Z,11.10
2023-04-29T02:19:01.929Z,11.10
2023-04-29T02:19:21.158Z,11.10
2023-04-29T02:19:30.562Z,11.10
2023-04-29T02:19:39.985Z,11.10
2023-04-29T02:19:49.359Z,11.10
2023-04-29T02:19:59.005Z,11.10
2023-04-29T02:20:08.401Z,11.10
2023-04-29T02:20:27.187Z,11.10
2023-04-29T02:20:36.592Z,11.10
2023-04-29T02:20:45.987Z,11.10
2023-04-29T02:20:55.423Z,11.10
2023-04-29T02:21:04.809Z,11.10
2023-04-29T02:21:14.196Z,11.10
2023-04-29T02:21:33.020Z,11.10
2023-04-29T02:21:42.386Z,11.10
2023-04-29T02:21:51.781Z,11.10
2023-04-29T02:22:01.179Z,11.10
2023-04-29T02:22:10.578Z,11.10
2023-04-29T02:22:19.952Z,11.10
2023-04-29T02:22:38.795Z,11.10
2023-04-29T02:22:48.189Z,11.10
2023-04-29T02:22:57.582Z,11.10
2023-04-29T02:23:06.957Z,11.10
2023-04-29T02:23:16.336Z,11.10
2023-04-29T02:23:25.740Z,11.10
2023-04-29T02:23:44.524Z,11.10
2023-04-29T02:23:53.917Z,11.10
2023-04-29T02:24:03.352Z,11.10
2023-04-29T02:24:12.758Z,11.10
2023-04-29T02:24:22.144Z,11.10
2023-04-29T02:24:31.545Z,11.10
2023-04-29T02:24:50.308Z,11.10
2023-04-29T02:24:59.697Z,11.10
2023-04-29T02:25:09.088Z,11.20
2023-04-29T02:25:18.480Z,11.10
2023-04-29T02:25:27.876Z,11.20
2023-04-29T02:25:37.272Z,11.20
2023-04-29T02:25:56.127Z,11.20
2023-04-29T02:26:05.456Z,11.20
2023-04-29T02:26:14.841Z,11.10
2023-04-29T02:26:24.233Z,11.20
2023-04-29T02:26:33.639Z,11.20
2023-04-29T02:26:43.040Z,11.20
2023-04-29T02:27:01.829Z,11.20
2023-04-29T02:27:11.231Z,11.20
2023-04-29T02:27:20.619Z,11.20
2023-04-29T02:27:30.025Z,11.20
2023-04-29T02:27:39.423Z,11.20
2023-04-29T02:27:48.808Z,11.20
2023-04-29T02:28:07.626Z,11.10
2023-04-29T02:28:17.017Z,11.10
2023-04-29T02:28:26.427Z,11.10
2023-04-29T02:28:35.808Z,11.20
2023-04-29T02:28:45.191Z,11.10
2023-04-29T02:28:54.607Z,11.10
2023-04-29T02:29:13.400Z,11.10
2023-04-29T02:29:22.808Z,11.10
2023-04-29T02:29:32.182Z,11.20
2023-04-29T02:29:41.690Z,11.20
2023-04-29T02:29:51.217Z,11.10
2023-04-29T02:30:00.464Z,11.10
2023-04-29T02:30:19.230Z,11.10
2023-04-29T02:30:28.630Z,11.10
2023-04-29T02:30:38.027Z,11.10
2023-04-29T02:30:47.433Z,11.20
2023-04-29T02:30:56.817Z,11.20
2023-04-29T02:31:06.225Z,11.20
2023-04-29T02:31:25.066Z,11.20
2023-04-29T02:31:34.441Z,11.20
2023-04-29T02:31:43.808Z,11.20
2023-04-29T02:31:53.207Z,11.20
2023-04-29T02:32:02.645Z,11.20